createdAt,value
2018-06-11T00:00:15.580Z,0.00
2018-06-11T00:01:15.631Z,0.00
2018-06-11T00:02:15.686Z,0.00
2018-06-11T00:03:15.741Z,0.00
2018-06-11T00:04:15.822Z,0.00
2018-06-11T00:05:15.838Z,0.00
2018-06-11T00:06:15.889Z,0.00
2018-06-11T00:07:15.942Z,0.00
2018-06-11T00:08:15.997Z,0.00
2018-06-11T00:09:16.073Z,0.00
2018-06-11T00:10:16.097Z,0.00
2018-06-11T00:11:16.147Z,0.00
2018-06-11T00:12:16.198Z,0.00
2018-06-11T00:13:16.257Z,0.00
2018-06-11T00:14:16.331Z,0.00
2018-06-11T00:15:16.353Z,0.00
2018-06-11T00:16:16.405Z,0.00
2018-06-11T00:17:16.461Z,0.00
2018-06-11T00:18:16.507Z,0.00
2018-06-11T00:19:16.601Z,0.00
2018-06-11T00:20:16.610Z,0.00
2018-06-11T00:21:16.665Z,0.00
2018-06-11T00:22:16.716Z,0.00
2018-06-11T00:23:16.764Z,0.00
2018-06-11T00:24:16.848Z,0.00
2018-06-11T00:25:16.869Z,0.00
2018-06-11T00:26:16.919Z,0.00
2018-06-11T00:27:16.972Z,0.00
2018-06-11T00:28:17.023Z,0.00
2018-06-11T00:29:17.104Z,0.00
2018-06-11T00:30:17.124Z,0.00
2018-06-11T00:31:17.178Z,0.00
2018-06-11T00:32:17.228Z,0.00
2018-06-11T00:33:17.278Z,0.00
2018-06-11T00:34:17.367Z,0.00
2018-06-11T00:35:17.381Z,0.00
2018-06-11T00:36:17.435Z,0.00
2018-06-11T00:37:17.484Z,0.00
2018-06-11T00:38:17.537Z,0.00
2018-06-11T00:39:17.613Z,0.00
2018-06-11T00:40:17.638Z,0.00
2018-06-11T00:41:17.690Z,0.00
2018-06-11T00:42:17.776Z,0.00
2018-06-11T00:43:17.793Z,0.00
2018-06-11T00:44:17.842Z,0.00
2018-06-11T00:45:17.893Z,0.00
2018-06-11T00:46:17.947Z,0.00
2018-06-11T00:47:18.029Z,0.00
2018-06-11T00:48:18.047Z,0.00
2018-06-11T00:49:18.101Z,0.00
2018-06-11T00:50:18.151Z,0.00
2018-06-11T00:51:18.211Z,0.00
2018-06-11T00:52:18.287Z,0.00
2018-06-11T00:53:18.303Z,0.00
2018-06-11T00:54:18.361Z,0.00
2018-06-11T00:55:18.405Z,0.00
2018-06-11T00:56:18.457Z,0.00
2018-06-11T00:57:18.555Z,0.00
2018-06-11T00:58:18.562Z,0.00
2018-06-11T00:59:18.611Z,0.00
2018-06-11T01:00:18.661Z,0.00
2018-06-11T01:01:18.714Z,0.00
2018-06-11T01:02:18.798Z,0.00
2018-06-11T01:03:18.816Z,0.00
2018-06-11T01:04:18.866Z,0.00
2018-06-11T01:05:18.920Z,0.00
2018-06-11T01:06:18.976Z,0.00
2018-06-11T01:07:19.042Z,0.00
2018-06-11T01:08:19.072Z,0.00
2018-06-11T01:09:19.128Z,0.00
2018-06-11T01:10:19.176Z,0.00
2018-06-11T01:11:19.224Z,0.00
2018-06-11T01:12:19.297Z,0.00
2018-06-11T01:13:19.350Z,0.00
2018-06-11T01:14:19.382Z,0.00
2018-06-11T01:15:19.429Z,0.00
2018-06-11T01:16:19.482Z,0.00
2018-06-11T01:17:19.566Z,0.00
2018-06-11T01:18:19.582Z,0.00
2018-06-11T01:19:19.634Z,0.00
2018-06-11T01:20:19.704Z,0.00
2018-06-11T01:21:19.734Z,0.00
2018-06-11T01:22:19.819Z,0.00
2018-06-11T01:23:19.860Z,0.00
2018-06-11T01:24:19.888Z,0.00
2018-06-11T01:25:19.941Z,0.00
2018-06-11T01:26:19.991Z,0.00
2018-06-11T01:27:20.041Z,0.00
2018-06-11T01:28:20.124Z,0.00
2018-06-11T01:29:20.166Z,0.00
2018-06-11T01:30:20.195Z,0.00
2018-06-11T01:31:20.244Z,0.00
2018-06-11T01:32:20.297Z,0.00
2018-06-11T01:33:20.370Z,0.00
2018-06-11T01:34:20.397Z,0.00
2018-06-11T01:35:20.449Z,0.00
2018-06-11T01:36:20.500Z,0.00
2018-06-11T01:37:20.552Z,0.00
2018-06-11T01:38:20.658Z,0.00
2018-06-11T01:39:20.656Z,0.00
2018-06-11T01:40:20.712Z,0.00
2018-06-11T01:41:20.755Z,0.00
2018-06-11T01:42:20.806Z,0.00
2018-06-11T01:43:20.902Z,0.00
2018-06-11T01:44:20.909Z,0.00
2018-06-11T01:45:20.961Z,0.00
2018-06-11T01:46:21.013Z,0.00
2018-06-11T01:47:21.060Z,0.00
2018-06-11T01:48:21.137Z,0.00
2018-06-11T01:49:21.188Z,0.00
2018-06-11T01:50:21.217Z,0.00
2018-06-11T01:51:21.267Z,0.00
2018-06-11T01:52:21.318Z,0.00
2018-06-11T01:53:21.367Z,0.00
2018-06-11T01:54:21.444Z,0.00
2018-06-11T01:55:21.490Z,0.00
2018-06-11T01:56:21.524Z,0.00
2018-06-11T01:57:21.570Z,0.00
2018-06-11T01:58:21.623Z,0.00
2018-06-11T01:59:21.673Z,0.00
2018-06-11T02:00:21.745Z,0.00
2018-06-11T02:01:21.776Z,0.00
2018-06-11T02:02:21.826Z,0.00
2018-06-11T02:03:21.877Z,0.00
2018-06-11T02:04:21.929Z,0.00
2018-06-11T02:05:22.001Z,0.00
2018-06-11T02:06:22.043Z,0.00
2018-06-11T02:07:22.082Z,0.00
2018-06-11T02:08:22.129Z,0.00
2018-06-11T02:09:22.180Z,0.00
2018-06-11T02:10:22.257Z,0.00
2018-06-11T02:11:22.314Z,0.00
2018-06-11T02:12:22.334Z,0.00
2018-06-11T02:13:22.386Z,0.00
2018-06-11T02:14:22.436Z,0.00
2018-06-11T02:15:22.515Z,0.00
2018-06-11T02:16:22.538Z,0.00
2018-06-11T02:17:22.594Z,0.00
2018-06-11T02:18:22.644Z,0.00
2018-06-11T02:19:22.693Z,0.00
2018-06-11T02:20:22.776Z,0.00
2018-06-11T02:21:22.801Z,0.00
2018-06-11T02:22:22.845Z,0.00
2018-06-11T02:23:22.894Z,0.00
2018-06-11T02:24:22.946Z,0.00
2018-06-11T02:25:23.020Z,0.00
2018-06-11T02:26:23.088Z,0.00
2018-06-11T02:27:23.097Z,0.00
2018-06-11T02:28:23.149Z,0.00
2018-06-11T02:29:23.201Z,0.00
2018-06-11T02:30:23.251Z,0.00
2018-06-11T02:31:23.335Z,0.00
2018-06-11T02:32:23.354Z,0.00
2018-06-11T02:33:23.406Z,0.00
2018-06-11T02:34:23.458Z,0.00
2018-06-11T02:35:23.507Z,0.00
2018-06-11T02:36:23.587Z,0.00
2018-06-11T02:37:23.610Z,0.00
2018-06-11T02:38:23.658Z,0.00
2018-06-11T02:39:23.709Z,0.00
2018-06-11T02:40:23.763Z,0.00
2018-06-11T02:41:23.834Z,0.00
2018-06-11T02:42:23.907Z,0.00
2018-06-11T02:43:23.914Z,0.00
2018-06-11T02:44:23.965Z,0.00
2018-06-11T02:45:24.016Z,0.00
2018-06-11T02:46:24.065Z,4.00
2018-06-11T02:47:24.142Z,4.00
2018-06-11T02:48:24.166Z,4.00
2018-06-11T02:49:24.217Z,0.00
2018-06-11T02:50:24.280Z,4.00
2018-06-11T02:51:24.319Z,4.00
2018-06-11T02:52:24.402Z,4.00
2018-06-11T02:53:24.420Z,4.00
2018-06-11T02:54:24.474Z,8.00
2018-06-11T02:55:24.522Z,8.00
2018-06-11T02:56:24.573Z,8.00
2018-06-11T02:57:24.649Z,12.00
2018-06-11T02:58:24.679Z,12.00
2018-06-11T02:59:24.725Z,12.00
2018-06-11T03:00:24.784Z,16.00
2018-06-11T03:01:24.832Z,20.00
2018-06-11T03:02:24.904Z,24.00
2018-06-11T03:03:24.930Z,24.00
2018-06-11T03:04:25.796Z,28.00
2018-06-11T03:05:25.038Z,32.00
2018-06-11T03:06:25.082Z,40.00
2018-06-11T03:07:25.161Z,44.00
2018-06-11T03:08:25.182Z,52.00
2018-06-11T03:09:25.234Z,60.00
2018-06-11T03:10:25.285Z,64.00
2018-06-11T03:11:25.335Z,76.00
2018-06-11T03:12:25.424Z,88.00
2018-06-11T03:13:25.437Z,100.00
2018-06-11T03:14:25.488Z,112.00
2018-06-11T03:15:25.540Z,128.00
2018-06-11T03:16:25.590Z,144.00
2018-06-11T03:17:25.664Z,164.00
2018-06-11T03:18:25.691Z,184.00
2018-06-11T03:19:25.770Z,208.00
2018-06-11T03:20:25.794Z,236.00
2018-06-11T03:21:25.844Z,268.00
2018-06-11T03:22:25.898Z,300.00
2018-06-11T03:23:25.948Z,336.00
2018-06-11T03:24:26.021Z,372.00
2018-06-11T03:25:26.053Z,416.00
2018-06-11T03:26:26.101Z,456.00
2018-06-11T03:27:26.150Z,504.00
2018-06-11T03:28:26.201Z,552.00
2018-06-11T03:29:26.296Z,604.00
2018-06-11T03:30:26.301Z,660.00
2018-06-11T03:31:26.357Z,712.00
2018-06-11T03:32:26.403Z,764.00
2018-06-11T03:33:26.456Z,820.00
2018-06-11T03:34:26.528Z,876.00
2018-06-11T03:35:26.579Z,928.00
2018-06-11T03:36:26.608Z,984.00
2018-06-11T03:37:26.657Z,1040.00
2018-06-11T03:38:26.709Z,1100.00
2018-06-11T03:39:26.758Z,1152.00
2018-06-11T03:40:26.834Z,1204.00
2018-06-11T03:41:26.861Z,1256.00
2018-06-11T03:42:27.808Z,1300.00
2018-06-11T03:43:26.966Z,1348.00
2018-06-11T03:44:27.012Z,1400.00
2018-06-11T03:45:27.092Z,1460.00
2018-06-11T03:46:27.114Z,1524.00
2018-06-11T03:47:27.166Z,1592.00
2018-06-11T03:48:27.222Z,1664.00
2018-06-11T03:49:27.273Z,1740.00
2018-06-11T03:50:27.346Z,1812.00
2018-06-11T03:51:27.369Z,1888.00
2018-06-11T03:52:27.446Z,1972.00
2018-06-11T03:53:27.472Z,2056.00
2018-06-11T03:54:27.522Z,2136.00
2018-06-11T03:55:27.574Z,2216.00
2018-06-11T03:56:27.623Z,2304.00
2018-06-11T03:57:27.698Z,2384.00
2018-06-11T03:58:27.727Z,2468.00
2018-06-11T03:59:27.773Z,2556.00
2018-06-11T04:00:27.827Z,2632.00
2018-06-11T04:01:27.877Z,2700.00
2018-06-11T04:02:27.954Z,2756.00
2018-06-11T04:03:27.981Z,2804.00
2018-06-11T04:04:28.030Z,2828.00
2018-06-11T04:05:28.082Z,2836.00
2018-06-11T04:06:28.136Z,2832.00
2018-06-11T04:07:28.212Z,2820.00
2018-06-11T04:08:28.234Z,2808.00
2018-06-11T04:09:28.287Z,2800.00
2018-06-11T04:10:28.336Z,2792.00
2018-06-11T04:11:28.385Z,2780.00
2018-06-11T04:12:28.468Z,2772.00
2018-06-11T04:13:28.490Z,2764.00
2018-06-11T04:14:28.541Z,2752.00
2018-06-11T04:15:28.592Z,2756.00
2018-06-11T04:16:28.644Z,2768.00
2018-06-11T04:17:28.730Z,2780.00
2018-06-11T04:18:28.744Z,2788.00
2018-06-11T04:19:28.798Z,2804.00
2018-06-11T04:20:28.844Z,2824.00
2018-06-11T04:21:28.898Z,2844.00
2018-06-11T04:22:28.976Z,2872.00
2018-06-11T04:23:28.998Z,2908.00
2018-06-11T04:24:29.056Z,2944.00
2018-06-11T04:25:29.105Z,2976.00
2018-06-11T04:26:29.157Z,3012.00
2018-06-11T04:27:29.254Z,3048.00
2018-06-11T04:28:29.253Z,3092.00
2018-06-11T04:29:29.327Z,3136.00
2018-06-11T04:30:29.370Z,3184.00
2018-06-11T04:31:29.410Z,3240.00
2018-06-11T04:32:29.458Z,3300.00
2018-06-11T04:33:29.512Z,3356.00
2018-06-11T04:34:29.599Z,3420.00
2018-06-11T04:35:29.611Z,3484.00
2018-06-11T04:36:29.663Z,3540.00
2018-06-11T04:37:29.714Z,3596.00
2018-06-11T04:38:29.765Z,3656.00
2018-06-11T04:39:29.847Z,3712.00
2018-06-11T04:40:29.870Z,3764.00
2018-06-11T04:41:29.917Z,3808.00
2018-06-11T04:42:29.968Z,3856.00
2018-06-11T04:43:30.021Z,3912.00
2018-06-11T04:44:30.102Z,3968.00
2018-06-11T04:45:30.125Z,4020.00
2018-06-11T04:46:30.176Z,4072.00
2018-06-11T04:47:30.223Z,4124.00
2018-06-11T04:48:30.276Z,4168.00
2018-06-11T04:49:30.371Z,4212.00
2018-06-11T04:50:30.379Z,4272.00
2018-06-11T04:51:30.430Z,4316.00
2018-06-11T04:52:30.481Z,4364.00
2018-06-11T04:53:30.558Z,4416.00
2018-06-11T04:54:30.607Z,4456.00
2018-06-11T04:55:30.663Z,4500.00
2018-06-11T04:56:30.689Z,4544.00
2018-06-11T04:57:30.736Z,4584.00
2018-06-11T04:58:30.787Z,4632.00
2018-06-11T04:59:30.839Z,4676.00
2018-06-11T05:00:30.923Z,4712.00
2018-06-11T05:01:30.944Z,4752.00
2018-06-11T05:02:30.995Z,4800.00
2018-06-11T05:03:31.048Z,4840.00
2018-06-11T05:04:31.096Z,4884.00
2018-06-11T05:05:31.184Z,4928.00
2018-06-11T05:06:31.201Z,4968.00
2018-06-11T05:07:31.251Z,5008.00
2018-06-11T05:08:31.298Z,5040.00
2018-06-11T05:09:31.350Z,5080.00
2018-06-11T05:10:31.434Z,5116.00
2018-06-11T05:11:31.458Z,5164.00
2018-06-11T05:12:31.504Z,5204.00
2018-06-11T05:13:31.558Z,5256.00
2018-06-11T05:14:31.607Z,5308.00
2018-06-11T05:15:31.681Z,5360.00
2018-06-11T05:16:31.734Z,5404.00
2018-06-11T05:17:31.765Z,5456.00
2018-06-11T05:18:31.815Z,5500.00
2018-06-11T05:19:31.866Z,5556.00
2018-06-11T05:20:31.940Z,5608.00
2018-06-11T05:21:32.010Z,5680.00
2018-06-11T05:22:32.021Z,5732.00
2018-06-11T05:23:32.092Z,5788.00
2018-06-11T05:24:32.120Z,5844.00
2018-06-11T05:25:32.171Z,5892.00
2018-06-11T05:26:32.250Z,5944.00
2018-06-11T05:27:32.274Z,5992.00
2018-06-11T05:28:32.325Z,6044.00
2018-06-11T05:29:32.380Z,6104.00
2018-06-11T05:30:32.431Z,6168.00
2018-06-11T05:31:32.505Z,6228.00
2018-06-11T05:32:32.536Z,6292.00
2018-06-11T05:33:32.584Z,6356.00
2018-06-11T05:34:32.645Z,6428.00
2018-06-11T05:35:32.691Z,6484.00
2018-06-11T05:36:32.764Z,6540.00
2018-06-11T05:37:32.815Z,6604.00
2018-06-11T05:38:32.842Z,6656.00
2018-06-11T05:39:32.893Z,6716.00
2018-06-11T05:40:32.954Z,6796.00
2018-06-11T05:41:33.028Z,6892.00
2018-06-11T05:42:33.058Z,7048.00
2018-06-11T05:43:33.099Z,7180.00
2018-06-11T05:44:33.157Z,7276.00
2018-06-11T05:45:33.207Z,7384.00
2018-06-11T05:46:33.297Z,7500.00
2018-06-11T05:47:33.308Z,7628.00
2018-06-11T05:48:33.359Z,7772.00
2018-06-11T05:49:33.415Z,7932.00
2018-06-11T05:50:33.463Z,8136.00
2018-06-11T05:51:33.537Z,8372.00
2018-06-11T05:52:33.593Z,8628.00
2018-06-11T05:53:33.619Z,8904.00
2018-06-11T05:54:33.671Z,9208.00
2018-06-11T05:55:33.722Z,9528.00
2018-06-11T05:56:33.774Z,9864.00
2018-06-11T05:57:33.854Z,10204.00
2018-06-11T05:58:33.881Z,10524.00
2018-06-11T05:59:33.930Z,10800.00
2018-06-11T06:00:33.981Z,11080.00
2018-06-11T06:01:34.037Z,11308.00
2018-06-11T06:02:34.125Z,11500.00
2018-06-11T06:03:34.138Z,11632.00
2018-06-11T06:04:34.190Z,11708.00
2018-06-11T06:05:34.246Z,11732.00
2018-06-11T06:06:34.295Z,11712.00
2018-06-11T06:07:34.387Z,11684.00
2018-06-11T06:08:34.425Z,11648.00
2018-06-11T06:09:34.451Z,11640.00
2018-06-11T06:10:34.504Z,11656.00
2018-06-11T06:11:34.566Z,11700.00
2018-06-11T06:12:34.630Z,11796.00
2018-06-11T06:13:34.658Z,11992.00
2018-06-11T06:14:34.739Z,12392.00
2018-06-11T06:15:34.763Z,13000.00
2018-06-11T06:16:34.817Z,13876.00
2018-06-11T06:17:34.869Z,14992.00
2018-06-11T06:18:34.945Z,16124.00
2018-06-11T06:19:35.005Z,17172.00
2018-06-11T06:20:35.026Z,18336.00
2018-06-11T06:21:35.079Z,19264.00
2018-06-11T06:22:35.131Z,19968.00
2018-06-11T06:23:35.209Z,20480.00
2018-06-11T06:24:35.234Z,20576.00
2018-06-11T06:25:35.320Z,20704.00
2018-06-11T06:26:35.345Z,20608.00
2018-06-11T06:27:35.394Z,20960.00
2018-06-11T06:28:35.469Z,21344.00
2018-06-11T06:29:35.499Z,21824.00
2018-06-11T06:30:35.576Z,22016.00
2018-06-11T06:31:35.605Z,22080.00
2018-06-11T06:32:35.660Z,21952.00
2018-06-11T06:33:35.710Z,21824.00
2018-06-11T06:34:35.886Z,21664.00
2018-06-11T06:35:35.840Z,21568.00
2018-06-11T06:36:35.871Z,21376.00
2018-06-11T06:37:35.924Z,21216.00
2018-06-11T06:38:35.980Z,20960.00
2018-06-11T06:39:36.092Z,20640.00
2018-06-11T06:40:36.177Z,20512.00
2018-06-11T06:41:36.137Z,20512.00
2018-06-11T06:42:36.190Z,20512.00
2018-06-11T06:43:36.240Z,20576.00
2018-06-11T06:44:36.294Z,20704.00
2018-06-11T06:45:36.379Z,20800.00
2018-06-11T06:46:36.406Z,20992.00
2018-06-11T06:47:36.453Z,20864.00
2018-06-11T06:48:36.507Z,20704.00
2018-06-11T06:49:36.561Z,20352.00
2018-06-11T06:50:36.641Z,19904.00
2018-06-11T06:51:36.671Z,19584.00
2018-06-11T06:52:36.720Z,19712.00
2018-06-11T06:53:36.800Z,20000.00
2018-06-11T06:54:36.826Z,20640.00
2018-06-11T06:55:36.902Z,21344.00
2018-06-11T06:56:36.955Z,22080.00
2018-06-11T06:57:36.985Z,22880.00
2018-06-11T06:58:37.038Z,23584.00
2018-06-11T06:59:37.095Z,24064.00
2018-06-11T07:00:37.144Z,24704.00
2018-06-11T07:01:37.223Z,25248.00
2018-06-11T07:02:37.250Z,25600.00
2018-06-11T07:03:37.304Z,25856.00
2018-06-11T07:04:37.356Z,26176.00
2018-06-11T07:05:37.409Z,26688.00
2018-06-11T07:06:37.496Z,27232.00
2018-06-11T07:07:37.520Z,27904.00
2018-06-11T07:08:37.568Z,28896.00
2018-06-11T07:09:37.672Z,28800.00
2018-06-11T07:10:37.678Z,29152.00
2018-06-11T07:11:37.772Z,31104.00
2018-06-11T07:12:37.783Z,31872.00
2018-06-11T07:13:37.852Z,31488.00
2018-06-11T07:14:37.892Z,30752.00
2018-06-11T07:15:37.946Z,30304.00
2018-06-11T07:16:38.034Z,28992.00
2018-06-11T07:17:38.055Z,32512.00
2018-06-11T07:18:38.107Z,34784.00
2018-06-11T07:19:38.162Z,31552.00
2018-06-11T07:20:38.215Z,32256.00
2018-06-11T07:21:38.290Z,63040.00
2018-06-11T07:22:38.344Z,32928.00
2018-06-11T07:23:38.373Z,33600.00
2018-06-11T07:24:38.429Z,35968.00
2018-06-11T07:25:38.482Z,35936.00
2018-06-11T07:26:38.536Z,40384.00
2018-06-11T07:27:38.630Z,38272.00
2018-06-11T07:28:38.644Z,41888.00
2018-06-11T07:29:38.699Z,32160.00
2018-06-11T07:30:38.756Z,77920.00
2018-06-11T07:31:38.806Z,59744.00
2018-06-11T07:32:38.887Z,60416.00
2018-06-11T07:33:38.917Z,73856.00
2018-06-11T07:34:38.970Z,81760.00
2018-06-11T07:35:39.026Z,75360.00
2018-06-11T07:36:39.079Z,60928.00
2018-06-11T07:37:39.162Z,43328.00
2018-06-11T07:38:39.188Z,39936.00
2018-06-11T07:39:39.242Z,46240.00
2018-06-11T07:40:39.299Z,54432.00
2018-06-11T07:41:39.352Z,66336.00
2018-06-11T07:42:39.431Z,56832.00
2018-06-11T07:43:39.502Z,31296.00
2018-06-11T07:44:39.518Z,71872.00
2018-06-11T07:45:39.572Z,71552.00
2018-06-11T07:46:39.626Z,31104.00
2018-06-11T07:47:39.683Z,26752.00
2018-06-11T07:48:39.762Z,23488.00
2018-06-11T07:49:39.794Z,45216.00
2018-06-11T07:50:39.849Z,41536.00
2018-06-11T07:51:39.945Z,42240.00
2018-06-11T07:52:39.960Z,71168.00
2018-06-11T07:53:40.044Z,71744.00
2018-06-11T07:54:40.070Z,73024.00
2018-06-11T07:55:40.122Z,74176.00
2018-06-11T07:56:40.180Z,68800.00
2018-06-11T07:57:40.234Z,58848.00
2018-06-11T07:58:40.317Z,50496.00
2018-06-11T07:59:40.343Z,49920.00
2018-06-11T08:00:40.400Z,49856.00
2018-06-11T08:01:40.456Z,51232.00
2018-06-11T08:02:40.510Z,51808.00
2018-06-11T08:03:40.590Z,63744.00
2018-06-11T08:04:40.624Z,77824.00
2018-06-11T08:05:40.698Z,86368.00
2018-06-11T08:06:40.728Z,93312.00
2018-06-11T08:07:40.786Z,97856.00
2018-06-11T08:08:40.837Z,94976.00
2018-06-11T08:09:40.893Z,86368.00
2018-06-11T08:10:40.975Z,78016.00
2018-06-11T08:11:41.004Z,71104.00
2018-06-11T08:12:41.061Z,71680.00
2018-06-11T08:13:41.218Z,79040.00
2018-06-11T08:14:41.173Z,87648.00
2018-06-11T08:15:41.249Z,83776.00
2018-06-11T08:16:41.283Z,85280.00
2018-06-11T08:17:41.336Z,80160.00
2018-06-11T08:18:41.391Z,79648.00
2018-06-11T08:19:41.457Z,79520.00
2018-06-11T08:20:41.527Z,78080.00
2018-06-11T08:21:41.560Z,74400.00
2018-06-11T08:22:41.644Z,74272.00
2018-06-11T08:23:41.672Z,77728.00
2018-06-11T08:24:41.725Z,78752.00
2018-06-11T08:25:41.815Z,78560.00
2018-06-11T08:26:41.839Z,74400.00
2018-06-11T08:27:41.898Z,70720.00
2018-06-11T08:28:41.950Z,70336.00
2018-06-11T08:29:42.006Z,72832.00
2018-06-11T08:30:42.104Z,77312.00
2018-06-11T08:31:42.118Z,83648.00
2018-06-11T08:32:42.176Z,72288.00
2018-06-11T08:33:42.259Z,87424.00
2018-06-11T08:34:42.287Z,87264.00
2018-06-11T08:35:42.375Z,61760.00
2018-06-11T08:36:42.397Z,41024.00
2018-06-11T08:37:42.453Z,69600.00
2018-06-11T08:38:42.512Z,93312.00
2018-06-11T08:39:42.567Z,73472.00
2018-06-11T08:40:42.654Z,52448.00
2018-06-11T08:41:42.679Z,54304.00
2018-06-11T08:42:42.734Z,45792.00
2018-06-11T08:43:42.791Z,44896.00
2018-06-11T08:44:43.413Z,82848.00
2018-06-11T08:45:42.944Z,86816.00
2018-06-11T08:46:42.964Z,87104.00
2018-06-11T08:47:43.014Z,93664.00
2018-06-11T08:48:43.071Z,76960.00
2018-06-11T08:49:43.125Z,51264.00
2018-06-11T08:50:43.222Z,41728.00
2018-06-11T08:51:43.239Z,47296.00
2018-06-11T08:52:43.293Z,89504.00
2018-06-11T08:53:43.350Z,89600.00
2018-06-11T08:54:43.406Z,84096.00
2018-06-11T08:55:43.495Z,80544.00
2018-06-11T08:56:43.519Z,75584.00
2018-06-11T08:57:43.581Z,73568.00
2018-06-11T08:58:43.633Z,81664.00
2018-06-11T08:59:43.746Z,87456.00
2018-06-11T09:00:43.768Z,89472.00
2018-06-11T09:01:43.801Z,89792.00
2018-06-11T09:02:43.857Z,89088.00
2018-06-11T09:03:43.964Z,60736.00
2018-06-11T09:04:43.995Z,69632.00
2018-06-11T09:05:44.030Z,100704.00
2018-06-11T09:06:44.110Z,80640.00
2018-06-11T09:07:44.145Z,97280.00
2018-06-11T09:08:44.197Z,82496.00
2018-06-11T09:09:44.260Z,41472.00
2018-06-11T09:10:44.314Z,50848.00
2018-06-11T09:11:44.390Z,73952.00
2018-06-11T09:12:44.427Z,53856.00
2018-06-11T09:13:44.484Z,64800.00
2018-06-11T09:14:44.540Z,93600.00
2018-06-11T09:15:44.597Z,82464.00
2018-06-11T09:16:44.679Z,61280.00
2018-06-11T09:17:44.710Z,91264.00
2018-06-11T09:18:44.769Z,81184.00
2018-06-11T09:19:44.824Z,87648.00
2018-06-11T09:20:44.884Z,77504.00
2018-06-11T09:21:44.972Z,65472.00
2018-06-11T09:22:44.997Z,55328.00
2018-06-11T09:23:45.060Z,54848.00
2018-06-11T09:24:45.108Z,54080.00
2018-06-11T09:25:45.170Z,48128.00
2018-06-11T09:26:45.248Z,63872.00
2018-06-11T09:27:45.306Z,49184.00
2018-06-11T09:28:45.340Z,58208.00
2018-06-11T09:29:45.392Z,58720.00
2018-06-11T09:30:45.450Z,56224.00
2018-06-11T09:31:45.504Z,61280.00
2018-06-11T09:32:45.593Z,53152.00
2018-06-11T09:33:45.618Z,63360.00
2018-06-11T09:34:45.675Z,77856.00
2018-06-11T09:35:45.735Z,73856.00
2018-06-11T09:36:45.789Z,81792.00
2018-06-11T09:37:45.871Z,71648.00
2018-06-11T09:38:45.900Z,64192.00
2018-06-11T09:39:45.959Z,63168.00
2018-06-11T09:40:46.013Z,51360.00
2018-06-11T09:41:46.073Z,54496.00
2018-06-11T09:42:46.168Z,52416.00
2018-06-11T09:43:46.245Z,50048.00
2018-06-11T09:44:46.239Z,55488.00
2018-06-11T09:45:46.296Z,73568.00
2018-06-11T09:46:46.354Z,60736.00
2018-06-11T09:47:46.444Z,90656.00
2018-06-11T09:48:46.466Z,98528.00
2018-06-11T09:49:46.524Z,91424.00
2018-06-11T09:50:46.579Z,96000.00
2018-06-11T09:51:46.635Z,108576.00
2018-06-11T09:52:46.723Z,91040.00
2018-06-11T09:53:46.773Z,79328.00
2018-06-11T09:54:46.805Z,90080.00
2018-06-11T09:55:46.881Z,82752.00
2018-06-11T09:56:46.918Z,87456.00
2018-06-11T09:57:46.978Z,84608.00
2018-06-11T09:58:47.059Z,87424.00
2018-06-11T09:59:47.092Z,92992.00
2018-06-11T10:00:47.152Z,93184.00
2018-06-11T10:01:47.210Z,94208.00
2018-06-11T10:02:47.260Z,99008.00
2018-06-11T10:03:47.358Z,70752.00
2018-06-11T10:04:47.374Z,63776.00
2018-06-11T10:05:47.433Z,102144.00
2018-06-11T10:06:47.489Z,69248.00
2018-06-11T10:07:47.548Z,49088.00
2018-06-11T10:08:47.633Z,49600.00
2018-06-11T10:09:47.660Z,50368.00
2018-06-11T10:10:47.719Z,46976.00
2018-06-11T10:11:47.774Z,45152.00
2018-06-11T10:12:47.828Z,46688.00
2018-06-11T10:13:47.913Z,55264.00
2018-06-11T10:14:47.970Z,66848.00
2018-06-11T10:15:48.001Z,63520.00
2018-06-11T10:16:48.054Z,45568.00
2018-06-11T10:17:48.113Z,41088.00
2018-06-11T10:18:48.168Z,43808.00
2018-06-11T10:19:48.247Z,40864.00
2018-06-11T10:20:48.285Z,38080.00
2018-06-11T10:21:48.336Z,39808.00
2018-06-11T10:22:48.397Z,35840.00
2018-06-11T10:23:48.450Z,34912.00
2018-06-11T10:24:48.590Z,34336.00
2018-06-11T10:25:48.564Z,34976.00
2018-06-11T10:26:48.623Z,35808.00
2018-06-11T10:27:48.677Z,37280.00
2018-06-11T10:28:48.746Z,38464.00
2018-06-11T10:29:48.823Z,36192.00
2018-06-11T10:30:48.850Z,36960.00
2018-06-11T10:31:48.903Z,37408.00
2018-06-11T10:32:48.958Z,37216.00
2018-06-11T10:33:49.016Z,36736.00
2018-06-11T10:34:49.100Z,36256.00
2018-06-11T10:35:49.153Z,35936.00
2018-06-11T10:36:49.185Z,36256.00
2018-06-11T10:37:49.245Z,36544.00
2018-06-11T10:38:49.300Z,37536.00
2018-06-11T10:39:49.355Z,37984.00
2018-06-11T10:40:49.454Z,38144.00
2018-06-11T10:41:49.469Z,38624.00
2018-06-11T10:42:49.525Z,37760.00
2018-06-11T10:43:49.582Z,38240.00
2018-06-11T10:44:49.638Z,39584.00
2018-06-11T10:45:49.739Z,41696.00
2018-06-11T10:46:49.754Z,39712.00
2018-06-11T10:47:49.806Z,44864.00
2018-06-11T10:48:49.863Z,49472.00
2018-06-11T10:49:49.920Z,45152.00
2018-06-11T10:50:50.001Z,47744.00
2018-06-11T10:51:50.036Z,47360.00
2018-06-11T10:52:50.092Z,45344.00
2018-06-11T10:53:50.148Z,43488.00
2018-06-11T10:54:50.205Z,42112.00
2018-06-11T10:55:50.315Z,44224.00
2018-06-11T10:56:50.313Z,44192.00
2018-06-11T10:57:50.372Z,45152.00
2018-06-11T10:58:50.430Z,45504.00
2018-06-11T10:59:50.485Z,41504.00
2018-06-11T11:00:50.571Z,43456.00
2018-06-11T11:01:50.624Z,42688.00
2018-06-11T11:02:50.658Z,41344.00
2018-06-11T11:03:50.714Z,39648.00
2018-06-11T11:04:50.771Z,40256.00
2018-06-11T11:05:50.828Z,40032.00
2018-06-11T11:06:50.925Z,39456.00
2018-06-11T11:07:51.684Z,38528.00
2018-06-11T11:08:51.006Z,37600.00
2018-06-11T11:09:51.053Z,37344.00
2018-06-11T11:10:51.112Z,35968.00
2018-06-11T11:11:51.204Z,34784.00
2018-06-11T11:12:51.225Z,34080.00
2018-06-11T11:13:51.282Z,33760.00
2018-06-11T11:14:51.338Z,35296.00
2018-06-11T11:15:51.394Z,35648.00
2018-06-11T11:16:51.484Z,36416.00
2018-06-11T11:17:51.508Z,36416.00
2018-06-11T11:18:51.569Z,36192.00
2018-06-11T11:19:51.620Z,35968.00
2018-06-11T11:20:51.680Z,35744.00
2018-06-11T11:21:51.804Z,35712.00
2018-06-11T11:22:51.796Z,35744.00
2018-06-11T11:23:51.846Z,36032.00
2018-06-11T11:24:51.906Z,36896.00
2018-06-11T11:25:51.965Z,38144.00
2018-06-11T11:26:52.050Z,38848.00
2018-06-11T11:27:52.073Z,39808.00
2018-06-11T11:28:52.138Z,40864.00
2018-06-11T11:29:52.196Z,41344.00
2018-06-11T11:30:52.248Z,40640.00
2018-06-11T11:31:52.325Z,40416.00
2018-06-11T11:32:52.391Z,39872.00
2018-06-11T11:33:52.415Z,39968.00
2018-06-11T11:34:52.474Z,39360.00
2018-06-11T11:35:52.527Z,38208.00
2018-06-11T11:36:52.584Z,36608.00
2018-06-11T11:37:52.673Z,34880.00
2018-06-11T11:38:52.700Z,33216.00
2018-06-11T11:39:52.754Z,31392.00
2018-06-11T11:40:53.497Z,29696.00
2018-06-11T11:41:52.869Z,27968.00
2018-06-11T11:42:52.956Z,26272.00
2018-06-11T11:43:52.983Z,24640.00
2018-06-11T11:44:53.091Z,23040.00
2018-06-11T11:45:53.095Z,21728.00
2018-06-11T11:46:53.154Z,20832.00
2018-06-11T11:47:53.230Z,20544.00
2018-06-11T11:48:53.293Z,20736.00
2018-06-11T11:49:53.325Z,21216.00
2018-06-11T11:50:53.378Z,21728.00
2018-06-11T11:51:53.433Z,22400.00
2018-06-11T11:52:53.493Z,23264.00
2018-06-11T11:53:53.590Z,24128.00
2018-06-11T11:54:53.604Z,24576.00
2018-06-11T11:55:53.662Z,24448.00
2018-06-11T11:56:53.716Z,23616.00
2018-06-11T11:57:53.774Z,22336.00
2018-06-11T11:58:53.862Z,20800.00
2018-06-11T11:59:53.886Z,19328.00
2018-06-11T12:00:53.942Z,18080.00
2018-06-11T12:01:53.997Z,17184.00
2018-06-11T12:02:54.053Z,16868.00
2018-06-11T12:03:54.134Z,16804.00
2018-06-11T12:04:54.187Z,16940.00
2018-06-11T12:05:54.220Z,17276.00
2018-06-11T12:06:54.276Z,17888.00
2018-06-11T12:07:54.334Z,18432.00
2018-06-11T12:08:54.393Z,18912.00
2018-06-11T12:09:54.465Z,19392.00
2018-06-11T12:10:54.502Z,19936.00
2018-06-11T12:11:56.214Z,20480.00
2018-06-11T12:12:54.610Z,21056.00